ADVERTISEMENT

iOS app on App Store Android app on Google Play

2017 \ Dodgers Run - October 1, 2017

Notes Pages Download Filter By
  1 2 3 4 5 6 7 8 9 10 11 12 13 14 15 16 17 18 19 20 21 22 23 [24] 25 26 27 28 29 30 31 32 33 34 35 36 37 38 39 40




Keyword Exact  
Division

Bib Division Last Name First Name Division Place Total Time Overall City State
809 40-49 Male Atienza Eugene 236 00:43:57 2301 San Diego CA
810 40-49 Female Atienza Jennifer 255 00:43:57 2302 San Diego CA
4704 50-59 Female Quinones Connie 83 00:43:58 2303 Lakewood CA
465 30-39 Female Tostado Teresa 376 00:44:00 2304 Chino CA
42 30-39 Male Chung Larry 332 00:44:00 2305 Los Angeles CA
5722 19-29 Male Tomes Andrew 164 00:44:03 2306 Azusa CA
5323 19-29 Female Sanchez-quintanar Arantxa 246 00:44:04 2307 Azusa CA
1673 30-39 Male Curry Woodrow 333 00:44:08 2308 Inglewood CA
4093 50-59 Male Moretti Dean 103 00:44:08 2309 Montebello CA
3390 1-13 Male Liu Joshua 130 00:44:10 2310 Pomona CA
2073 50-59 Female Fleischmann W Ellen 84 00:44:10 2311 Chatsworth CA
5668 30-39 Female Tejeda Lisa 377 00:44:10 2312 Huntington Park CA
3394 1-13 Male Liu Tyler 131 00:44:10 2313 Pomona CA
3391 40-49 Male Liu Mike 237 00:44:11 2314 Pomona CA
1186 60-69 Male Burman Alan 36 00:44:11 2315 Van Nuys CA
2666 50-59 Male Hamai Gary 104 00:44:12 2316 Monterey Park CA
4763 50-59 Female Ramirez Irma 85 00:44:12 2317 Delano CA
2004 1-13 Female Evans Emily 81 00:44:13 2318 Los Angeles CA
2005 40-49 Female Evans Karin 256 00:44:13 2319 Los Angeles CA
2001 1-13 Male Evans Andrew 132 00:44:13 2320 Los Angeles CA
5562 30-39 Male Stagner Matthew 334 00:44:15 2321 Torrance CA
3308 40-49 Male Lee John 238 00:44:15 2322 Brea CA
3229 30-39 Female Lam Yuen Yi 378 00:44:15 2323 Temple City CA
4785 40-49 Female Ramirez Nora 257 00:44:16 2324 Los ?ngeles CA
422 30-39 Female Barron Maria 379 00:44:16 2325 Sylmar CA
4416 19-29 Male Pak Andrew 165 00:44:16 2326 San Gabriel CA
4277 19-29 Female O'brien Kara 247 00:44:17 2327 Torrance CA
4572 19-29 Male Perez Ii Julio 166 00:44:18 2328 Reseda CA
5406 14-18 Female Sellers Brianna 101 00:44:19 2329 Lancaster CA
3457 14-18 Female Lopez Melanie 102 00:44:19 2330 Los Angeles CA
999 14-18 Female Beiza Jennifer 103 00:44:19 2331 Los Angeles CA
5408 40-49 Male Sellers Semion 239 00:44:19 2332 Lancaster CA
108 30-39 Female Ridolfo Brittany 380 00:44:20 2333 Riverside CA
2814 40-49 Female Herrera Elizabeth 258 00:44:20 2334 Los Angeles CA
59 30-39 Female Foust Natasha 381 00:44:21 2335 Riverside CA
1833 40-49 Male Dominguez Erick 240 00:44:21 2336 Los Angeles CA
3921 1-13 Male Mergil Drew 133 00:44:21 2337 Riverside CA
1595 14-18 Female Corral Valeria 104 00:44:21 2338 Garden Grove CA
3920 1-13 Male Mergil Diego 134 00:44:22 2339 Riverside CA
2457 1-13 Male Gonzalez Antonio 135 00:44:22 2340 Hawthorne CA
189 30-39 Female Samayoa Moranda 382 00:44:24 2341 El Monte CA
1626 30-39 Female Couch Kimberley 383 00:44:25 2342 Carpinteria CA
3471 19-29 Male Lopez Sergio 167 00:44:26 2343 Irwindale CA
551 30-39 Male Adame Jorge 335 00:44:26 2344 Monterey Park CA
556 30-39 Male Adiwibowo Felix 336 00:44:27 2345 Canoga Park CA
329 50-59 Male Diaz Will 105 00:44:28 2346 Rancho Cucamonga CA
3455 50-59 Female Lopez Maria 86 00:44:28 2347 Irwindale CA
195 30-39 Female Aijala Jennie 384 00:44:29 2348 North Hills CA
328 19-29 Female Diaz Kimberly 248 00:44:29 2349 Rancho Cucamonga CA
3033 40-49 Male Johnson Joseph 241 00:44:31 2350 West Covina CA
2894 19-29 Female Huerta Evelin 249 00:44:31 2351 Whittier CA
1855 19-29 Female Dorado Gabriela 250 00:44:32 2352 Hawthorne CA
303 30-39 Male Montgomery Nicholas 337 00:44:34 2353 Huntington Beach CA
5702 40-49 Male Thoong Langston 242 00:44:35 2354 West Covina CA
5106 40-49 Male Rosa Sam 243 00:44:35 2355 Los Angeles CA
3828 19-29 Female Medrano Christina 251 00:44:36 2356 Palmdale CA
2386 14-18 Male Glass Patrick 148 00:44:36 2357 Westlake Village CA
1149 40-49 Male Broad Richard 244 00:44:36 2358 Reseda CA
2384 50-59 Female Glass Amaryllis 87 00:44:37 2359 Westlake Village CA
2385 19-29 Female Glass Olivia 252 00:44:37 2360 Westlake Village CA
4368 30-39 Male Ortiz Anthony 338 00:44:38 2361 Whittier CA
3918 40-49 Male Mergil Daniel 245 00:44:38 2362 Riverside CA
4420 19-29 Female Palencia Claudia 253 00:44:38 2363 Gardena CA
4011 30-39 Female Montez Samantha 385 00:44:38 2364 Whittier CA
3723 40-49 Male Martinez Matthew 246 00:44:38 2365 Chino CA
4756 30-39 Male Ramirez Emmanuel 339 00:44:38 2366 Redondo Beach CA
3919 40-49 Female Mergil Desere 259 00:44:38 2367 Riverside CA
208 40-49 Male Garcia Alfred SR. 247 00:44:38 2368 Los Angeles CA
209 19-29 Female Garcia Heather 254 00:44:39 2369 Los Angeles CA
171 30-39 Male Barahona Ubaldo 340 00:44:39 2370 Pomona CA
2212 30-39 Female Galvan Johanna 386 00:44:39 2371 Los Angeles CA
5095 40-49 Male Romo Albert 248 00:44:39 2372 Sylmar CA
2383 19-29 Male Glass Alec 168 00:44:39 2373 Westlake Village CA
3371 1-13 Female Lindberg Zoe 82 00:44:39 2374 Santa Monica CA
1381 19-29 Male Cervantes Jose De Jesus 169 00:44:39 2375 Gardena CA
2456 1-13 Female Gonzalez Angelina 83 00:44:39 2376 Pomona CA
194 40-49 Male Aijala David 249 00:44:39 2377 North Hills CA
3370 30-39 Female Lindberg Rebecca 387 00:44:39 2378 Santa Monica CA
6227 30-39 Female Zell Tawny 388 00:44:39 2379 Riverside CA
172 30-39 Female Gonzalez Meredyth 389 00:44:40 2380 Pomona CA
5656 50-59 Female Tate Karen 88 00:44:40 2381 Redondo Beach CA
2531 1-13 Male Gray Matthew 136 00:44:41 2382 Redondo Beach CA
4918 14-18 Female Rios Jessica 105 00:44:41 2383 Covina CA
5088 14-18 Female Romero Julisa 106 00:44:41 2384 Visalia CA
5086 1-13 Female Romero Andrea 84 00:44:41 2385 Amelia OH
2978 19-29 Female Jarasa Cyl Gabby 255 00:44:42 2386 Glendale CA
5524 60-69 Male Solorzano Daniel 37 00:44:42 2387 Alhambra CA
1846 30-39 Male Donati Chris 341 00:44:42 2388 Santa Barbara CA
114 30-39 Male Romero Rudolph 342 00:44:43 2389 Amelia OH
2192 19-29 Female Galit Jianna 256 00:44:43 2390 Cerritos CA
4458 30-39 Female Partida Eva 390 00:44:43 2391 Santa Ana CA
3653 40-49 Female Martin Ebony 260 00:44:44 2392 Lomita CA
6286 1-13 Male Barles Aren Gerard 137 00:44:45 2393 South Pasadena CA
2429 19-29 Female Gomez Kayla 257 00:44:46 2394 Oxnard CA
268 19-29 Female Manriquez Lizette 258 00:44:47 2395 Glendora CA
6247 40-49 Female Morales Lucy 261 00:44:47 2396 Los Angeles CA
6287 40-49 Male Barles Arnold 250 00:44:48 2397 South Pasadena CA
5799 50-59 Female Trudeau Patricia 89 00:44:49 2398 Fresno CA
5693 40-49 Female Thomas Erica 262 00:44:49 2399 Monrovia CA
4449 1-13 Male Park Ryan 138 00:44:49 2400 Santa Monica CA
Notes Pages Download Filter By
  1 2 3 4 5 6 7 8 9 10 11 12 13 14 15 16 17 18 19 20




Keyword Exact  
Division

Bib Division Last Name First Name Division Place Total Time Overall City State
Not Found